createdAt,value
2023-01-11T00:00:32.710Z,4.95
2023-01-11T00:03:00.856Z,4.57
2023-01-11T00:05:28.224Z,4.78
2023-01-11T00:07:55.498Z,4.32
2023-01-11T00:10:23.041Z,4.43
2023-01-11T00:12:50.558Z,4.57
2023-01-11T00:15:17.662Z,4.20
2023-01-11T00:17:44.966Z,4.18
2023-01-11T00:20:12.403Z,4.50
2023-01-11T00:22:39.519Z,4.50
2023-01-11T00:25:06.980Z,3.97
2023-01-11T00:27:34.182Z,3.70
2023-01-11T00:30:01.353Z,3.25
2023-01-11T00:32:28.748Z,3.63
2023-01-11T00:34:55.949Z,3.38
2023-01-11T00:37:23.150Z,3.47
2023-01-11T00:39:51.429Z,3.60
2023-01-11T00:42:37.319Z,3.33
2023-01-11T00:45:23.288Z,3.10
2023-01-11T00:48:04.746Z,2.80
2023-01-11T00:50:33.208Z,2.80
2023-01-11T00:53:00.768Z,2.92
2023-01-11T00:55:28.021Z,3.00
2023-01-11T00:57:55.206Z,3.58
2023-01-11T01:00:22.750Z,3.97
2023-01-11T01:02:50.471Z,4.03
2023-01-11T01:05:18.018Z,3.30
2023-01-11T01:07:45.679Z,3.88
2023-01-11T01:10:13.912Z,3.60
2023-01-11T01:13:00.075Z,4.38
2023-01-11T01:15:27.241Z,5.03
2023-01-11T01:17:55.239Z,3.50
2023-01-11T01:20:23.110Z,4.53
2023-01-11T01:22:50.662Z,4.22
2023-01-11T01:25:17.819Z,3.97
2023-01-11T01:27:44.946Z,4.13
2023-01-11T01:30:12.298Z,3.70
2023-01-11T01:32:40.010Z,3.83
2023-01-11T01:35:07.374Z,3.88
2023-01-11T01:37:34.518Z,4.50
2023-01-11T01:40:01.601Z,3.88
2023-01-11T01:42:28.940Z,4.38
2023-01-11T01:44:56.471Z,4.13
2023-01-11T01:47:35.599Z,3.90
2023-01-11T01:50:06.071Z,3.70
2023-01-11T01:52:33.841Z,4.05
2023-01-11T01:55:03.260Z,3.97
2023-01-11T01:57:35.148Z,3.72
2023-01-11T02:00:04.341Z,4.25
2023-01-11T02:02:33.351Z,3.95
2023-01-11T02:05:00.649Z,4.03
2023-01-11T02:07:30.163Z,3.35
2023-01-11T02:10:03.439Z,4.10
2023-01-11T02:12:32.221Z,3.53
2023-01-11T02:15:03.031Z,3.40
2023-01-11T02:17:30.151Z,3.42
2023-01-11T02:19:57.187Z,3.20
2023-01-11T02:22:27.277Z,3.78
2023-01-11T02:24:54.328Z,3.50
2023-01-11T02:27:24.768Z,2.95
2023-01-11T02:30:03.506Z,3.35
2023-01-11T02:32:39.468Z,3.97
2023-01-11T02:35:09.480Z,3.35
2023-01-11T02:37:39.301Z,3.50
2023-01-11T02:40:09.378Z,3.17
2023-01-11T02:43:01.756Z,3.00
2023-01-11T02:45:29.103Z,2.88
2023-01-11T02:47:59.631Z,3.30
2023-01-11T02:50:29.876Z,3.42
2023-01-11T02:53:04.014Z,3.80
2023-01-11T02:55:33.607Z,3.60
2023-01-11T02:58:01.935Z,3.22
2023-01-11T03:00:29.607Z,3.13
2023-01-11T03:03:07.013Z,3.42
2023-01-11T03:05:36.208Z,3.40
2023-01-11T03:08:08.942Z,3.15
2023-01-11T03:10:49.550Z,3.33
2023-01-11T03:13:19.683Z,3.05
2023-01-11T03:15:55.629Z,2.75
2023-01-11T03:18:23.112Z,2.90
2023-01-11T03:20:54.862Z,2.88
2023-01-11T03:23:35.020Z,2.97
2023-01-11T03:26:08.074Z,3.42
2023-01-11T03:28:50.534Z,2.70
2023-01-11T03:31:31.077Z,2.90
2023-01-11T03:34:07.490Z,2.92
2023-01-11T03:36:40.627Z,2.83
2023-01-11T03:39:16.681Z,2.83
2023-01-11T03:41:43.910Z,2.80
2023-01-11T03:44:14.461Z,2.60
2023-01-11T03:46:46.853Z,2.65
2023-01-11T03:49:17.353Z,2.47
2023-01-11T03:51:45.421Z,2.63
2023-01-11T03:54:14.351Z,2.67
2023-01-11T03:56:56.664Z,2.40
2023-01-11T03:59:23.967Z,2.10
2023-01-11T04:01:53.211Z,2.20
2023-01-11T04:04:21.068Z,2.60
2023-01-11T04:06:48.257Z,2.10
2023-01-11T04:09:15.409Z,2.30
2023-01-11T04:11:42.591Z,2.15
2023-01-11T04:14:09.809Z,1.83
2023-01-11T04:16:37.035Z,2.38
2023-01-11T04:19:04.123Z,2.10
2023-01-11T04:21:31.261Z,1.80
2023-01-11T04:23:58.549Z,1.83
2023-01-11T04:26:25.679Z,1.80
2023-01-11T04:28:54.296Z,1.92
2023-01-11T04:31:21.681Z,1.60
2023-01-11T04:33:48.884Z,1.75
2023-01-11T04:36:16.108Z,1.65
2023-01-11T04:38:43.253Z,1.40
2023-01-11T04:41:29.246Z,1.67
2023-01-11T04:43:56.653Z,1.27
2023-01-11T04:46:24.467Z,1.38
2023-01-11T04:48:51.754Z,1.20
2023-01-11T04:51:19.224Z,1.45
2023-01-11T04:53:47.957Z,1.20
2023-01-11T04:56:15.314Z,1.75
2023-01-11T04:58:42.910Z,1.63
2023-01-11T05:01:11.287Z,2.03
2023-01-11T05:03:38.711Z,2.00
2023-01-11T05:06:06.099Z,1.75
2023-01-11T05:08:33.331Z,2.20
2023-01-11T05:11:01.752Z,2.38
2023-01-11T05:13:47.361Z,2.30
2023-01-11T05:16:14.452Z,2.45
2023-01-11T05:18:42.265Z,2.40
2023-01-11T05:21:13.668Z,2.13
2023-01-11T05:23:41.242Z,2.33
2023-01-11T05:26:14.648Z,2.35
2023-01-11T05:28:41.782Z,2.45
2023-01-11T05:31:11.359Z,2.42
2023-01-11T05:33:38.749Z,2.40
2023-01-11T05:36:07.341Z,2.47
2023-01-11T05:38:34.964Z,2.50
2023-01-11T05:41:03.205Z,2.70
2023-01-11T05:43:31.041Z,2.75
2023-01-11T05:46:01.333Z,2.72
2023-01-11T05:48:28.564Z,3.00
2023-01-11T05:50:56.326Z,3.30
2023-01-11T05:53:24.153Z,3.35
2023-01-11T05:55:58.908Z,2.72
2023-01-11T05:58:26.811Z,3.22
2023-01-11T06:00:55.282Z,2.85
2023-01-11T06:03:23.568Z,2.90
2023-01-11T06:05:51.148Z,3.42
2023-01-11T06:08:18.534Z,3.40
2023-01-11T06:10:51.450Z,2.90
2023-01-11T06:13:31.094Z,3.45
2023-01-11T06:16:05.793Z,3.90
2023-01-11T06:18:34.115Z,3.20
2023-01-11T06:21:01.245Z,3.83
2023-01-11T06:23:28.983Z,3.92
2023-01-11T06:25:56.175Z,3.60
2023-01-11T06:28:23.388Z,4.10
2023-01-11T06:30:53.941Z,4.50
2023-01-11T06:33:21.732Z,4.35
2023-01-11T06:35:48.947Z,4.47
2023-01-11T06:38:16.864Z,4.40
2023-01-11T06:40:44.323Z,4.03
2023-01-11T06:43:11.387Z,4.05
2023-01-11T06:45:38.566Z,4.20
2023-01-11T06:48:06.050Z,4.53
2023-01-11T06:50:33.147Z,5.00
2023-01-11T06:53:03.907Z,5.30
2023-01-11T06:55:31.785Z,4.47
2023-01-11T06:57:58.885Z,4.55
2023-01-11T07:00:26.415Z,4.45
2023-01-11T07:02:53.624Z,4.95
2023-01-11T07:05:21.791Z,4.75
2023-01-11T07:07:49.435Z,4.03
2023-01-11T07:10:16.932Z,3.97
2023-01-11T07:12:44.007Z,4.65
2023-01-11T07:15:11.677Z,4.85
2023-01-11T07:17:39.137Z,4.90
2023-01-11T07:20:06.752Z,3.85
2023-01-11T07:22:34.780Z,4.95
2023-01-11T07:25:01.972Z,4.38
2023-01-11T07:27:29.049Z,4.47
2023-01-11T07:29:56.198Z,4.47
2023-01-11T07:32:23.319Z,4.63
2023-01-11T07:34:50.499Z,3.88
2023-01-11T07:37:28.828Z,3.83
2023-01-11T07:39:56.976Z,3.90
2023-01-11T07:42:42.793Z,4.30
2023-01-11T07:45:10.134Z,5.03
2023-01-11T07:47:37.260Z,3.70
2023-01-11T07:50:04.538Z,4.82
2023-01-11T07:52:31.713Z,4.22
2023-01-11T07:55:02.458Z,3.90
2023-01-11T07:57:30.652Z,4.97
2023-01-11T07:59:57.848Z,4.20
2023-01-11T08:02:25.086Z,4.20
2023-01-11T08:04:52.228Z,4.07
2023-01-11T08:07:19.365Z,4.57
2023-01-11T08:09:46.511Z,4.45
2023-01-11T08:12:32.186Z,4.50
2023-01-11T08:14:59.334Z,4.35
2023-01-11T08:17:26.547Z,5.05
2023-01-11T08:19:55.827Z,4.40
2023-01-11T08:22:23.093Z,4.90
2023-01-11T08:24:50.675Z,4.75
2023-01-11T08:27:17.879Z,4.70
2023-01-11T08:29:45.076Z,5.95
2023-01-11T08:32:12.820Z,4.95
2023-01-11T08:34:39.950Z,3.90
2023-01-11T08:37:07.195Z,5.07
2023-01-11T08:39:34.468Z,3.72
2023-01-11T08:42:03.106Z,3.17
2023-01-11T08:44:33.970Z,2.63
2023-01-11T08:47:02.278Z,3.72
2023-01-11T08:49:30.421Z,2.47
2023-01-11T08:51:57.573Z,4.50
2023-01-11T08:54:25.068Z,3.38
2023-01-11T08:56:52.234Z,2.88
2023-01-11T08:59:20.023Z,2.78
2023-01-11T09:01:47.472Z,3.15
2023-01-11T09:04:24.225Z,3.40
2023-01-11T09:06:52.141Z,3.15
2023-01-11T09:09:19.296Z,2.95
2023-01-11T09:11:56.459Z,3.30
2023-01-11T09:14:24.494Z,3.78
2023-01-11T09:16:52.097Z,4.28
2023-01-11T09:19:19.252Z,3.20
2023-01-11T09:21:46.583Z,3.28
2023-01-11T09:24:14.250Z,3.60
2023-01-11T09:26:43.419Z,3.58
2023-01-11T09:29:11.607Z,4.40
2023-01-11T09:31:39.163Z,3.63
2023-01-11T09:34:07.088Z,4.28
2023-01-11T09:36:36.260Z,5.28
2023-01-11T09:39:08.384Z,4.30
2023-01-11T09:41:38.334Z,4.88
2023-01-11T09:44:12.003Z,4.40
2023-01-11T09:46:42.766Z,3.35
2023-01-11T09:49:20.038Z,3.78
2023-01-11T09:51:48.079Z,3.30
2023-01-11T09:54:18.413Z,3.17
2023-01-11T09:56:53.839Z,3.05
2023-01-11T09:59:25.961Z,3.58
2023-01-11T10:02:05.242Z,3.35
2023-01-11T10:04:51.310Z,3.13
2023-01-11T10:07:37.989Z,3.47
2023-01-11T10:18:26.025Z,2.88
2023-01-11T10:19:31.503Z,3.95
2023-01-11T10:22:01.918Z,3.88
2023-01-11T10:24:31.249Z,2.85
2023-01-11T10:26:58.844Z,3.38
2023-01-11T10:29:53.926Z,3.00
2023-01-11T10:32:51.319Z,3.88
2023-01-11T10:35:47.902Z,3.05
2023-01-11T10:38:42.727Z,4.05
2023-01-11T10:41:22.112Z,3.65
2023-01-11T10:43:53.784Z,3.00
2023-01-11T10:46:22.576Z,3.67
2023-01-11T10:48:57.244Z,3.53
2023-01-11T10:51:53.784Z,4.25
2023-01-11T10:54:23.166Z,3.35
2023-01-11T10:57:11.301Z,3.38
2023-01-11T10:59:39.247Z,3.85
2023-01-11T11:02:06.549Z,3.03
2023-01-11T11:04:46.013Z,3.17
2023-01-11T11:07:13.203Z,3.33
2023-01-11T11:09:48.788Z,4.88
2023-01-11T11:12:21.087Z,4.78
2023-01-11T11:15:00.599Z,3.83
2023-01-11T11:17:36.453Z,4.35
2023-01-11T11:20:13.169Z,4.28
2023-01-11T11:22:40.437Z,4.30
2023-01-11T11:25:16.764Z,4.03
2023-01-11T11:27:52.065Z,4.28
2023-01-11T11:30:31.236Z,4.22
2023-01-11T11:33:00.624Z,4.22
2023-01-11T11:35:39.172Z,3.70
2023-01-11T11:38:06.366Z,3.88
2023-01-11T11:40:37.835Z,3.40
2023-01-11T11:43:12.112Z,3.85
2023-01-11T11:45:50.632Z,3.30
2023-01-11T11:48:17.927Z,3.83
2023-01-11T11:50:46.060Z,3.55
2023-01-11T11:53:33.621Z,3.45
2023-01-11T11:56:06.354Z,3.92
2023-01-11T11:58:33.628Z,3.90
2023-01-11T12:01:02.424Z,3.42
2023-01-11T12:03:32.831Z,2.80
2023-01-11T12:06:09.139Z,3.28
2023-01-11T12:08:36.731Z,3.22
2023-01-11T12:11:08.093Z,3.40
2023-01-11T12:13:36.941Z,3.13
2023-01-11T12:16:08.221Z,3.10
2023-01-11T12:18:38.122Z,3.00
2023-01-11T12:21:24.898Z,2.50
2023-01-11T12:24:09.032Z,3.05
2023-01-11T12:26:54.380Z,2.58
2023-01-11T12:29:38.113Z,3.25
2023-01-11T12:32:11.105Z,2.63
2023-01-11T12:34:46.560Z,3.75
2023-01-11T12:37:31.728Z,2.75
2023-01-11T12:40:07.990Z,2.75
2023-01-11T12:42:55.600Z,3.92
2023-01-11T12:45:48.541Z,2.92
2023-01-11T12:50:56.514Z,2.85
2023-01-11T12:53:38.696Z,3.47
2023-01-11T12:56:20.619Z,3.63
2023-01-11T12:58:52.420Z,4.00
2023-01-11T13:01:34.585Z,3.05
2023-01-11T13:04:27.935Z,4.53
2023-01-11T13:07:13.564Z,3.17
2023-01-11T13:09:40.601Z,3.45
2023-01-11T13:12:16.877Z,4.88
2023-01-11T13:14:50.386Z,3.70
2023-01-11T13:17:26.853Z,3.55
2023-01-11T13:20:15.063Z,3.70
2023-01-11T13:22:44.377Z,2.97
2023-01-11T13:25:32.692Z,3.80
2023-01-11T13:28:00.939Z,4.07
2023-01-11T13:30:28.842Z,3.50
2023-01-11T13:33:01.984Z,3.78
2023-01-11T13:35:35.138Z,4.22
2023-01-11T13:38:07.285Z,3.85
2023-01-11T13:40:42.440Z,4.38
2023-01-11T13:43:12.540Z,4.18
2023-01-11T13:45:44.216Z,4.70
2023-01-11T13:48:19.314Z,3.33
2023-01-11T13:50:55.101Z,4.43
2023-01-11T13:53:36.922Z,4.43
2023-01-11T13:56:08.447Z,4.03
2023-01-11T13:58:47.486Z,4.00
2023-01-11T14:01:16.655Z,4.53
2023-01-11T14:03:48.745Z,5.53
2023-01-11T14:06:26.478Z,4.97
2023-01-11T14:09:02.677Z,4.97
2023-01-11T14:11:38.455Z,4.90
2023-01-11T14:14:17.878Z,5.03
2023-01-11T14:16:51.193Z,4.00
2023-01-11T14:19:33.470Z,4.45
2023-01-11T14:22:20.920Z,4.10
2023-01-11T14:25:07.768Z,3.85
2023-01-11T14:27:51.810Z,3.83
2023-01-11T14:30:21.724Z,3.88
2023-01-11T14:32:55.023Z,4.60
2023-01-11T14:35:35.132Z,3.97
2023-01-11T14:38:12.569Z,3.15
2023-01-11T14:40:45.496Z,4.57
2023-01-11T14:43:21.178Z,3.60
2023-01-11T14:46:07.221Z,4.88
2023-01-11T14:48:53.070Z,2.83
2023-01-11T14:51:33.835Z,3.60
2023-01-11T14:54:06.849Z,3.45
2023-01-11T14:56:42.914Z,3.35
2023-01-11T14:59:25.325Z,4.57
2023-01-11T15:02:05.026Z,3.78
2023-01-11T15:04:34.284Z,3.28
2023-01-11T15:07:01.842Z,3.17
2023-01-11T15:09:45.537Z,3.00
2023-01-11T15:12:13.730Z,3.60
2023-01-11T15:14:46.220Z,4.18
2023-01-11T15:17:36.077Z,5.00
2023-01-11T15:20:07.734Z,4.00
2023-01-11T15:22:35.049Z,3.67
2023-01-11T15:25:07.579Z,4.53
2023-01-11T15:27:35.849Z,3.35
2023-01-11T15:30:03.775Z,3.78
2023-01-11T15:32:32.515Z,3.85
2023-01-11T15:35:16.796Z,3.72
2023-01-11T15:37:44.173Z,3.70
2023-01-11T15:40:14.083Z,3.63
2023-01-11T15:42:59.914Z,3.58
2023-01-11T15:45:59.649Z,3.20
2023-01-11T15:48:44.183Z,3.15
2023-01-11T15:51:17.397Z,4.00
2023-01-11T15:53:56.981Z,3.97
2023-01-11T15:56:31.836Z,3.75
2023-01-11T15:59:18.041Z,4.38
2023-01-11T16:02:04.128Z,3.50
2023-01-11T16:04:34.316Z,4.40
2023-01-11T16:07:06.638Z,3.60
2023-01-11T16:09:52.727Z,3.95
2023-01-11T16:12:31.253Z,3.40
2023-01-11T16:15:15.572Z,2.90
2023-01-11T16:17:44.592Z,3.10
2023-01-11T16:20:21.018Z,3.67
2023-01-11T16:22:50.383Z,3.88
2023-01-11T16:25:18.127Z,3.35
2023-01-11T16:27:52.171Z,3.15
2023-01-11T16:30:19.862Z,3.55
2023-01-11T16:32:47.083Z,4.82
2023-01-11T16:35:32.057Z,3.90
2023-01-11T16:38:01.374Z,3.47
2023-01-11T16:40:31.914Z,3.42
2023-01-11T16:43:00.068Z,3.33
2023-01-11T16:45:39.986Z,4.70
2023-01-11T16:48:10.300Z,4.38
2023-01-11T16:50:37.662Z,4.07
2023-01-11T16:53:05.609Z,3.10
2023-01-11T16:55:37.644Z,3.13
2023-01-11T16:58:06.530Z,3.05
2023-01-11T17:00:38.358Z,4.65
2023-01-11T17:03:25.969Z,4.53
2023-01-11T17:06:04.167Z,3.83
2023-01-11T17:08:33.020Z,4.47
2023-01-11T17:11:02.195Z,3.90
2023-01-11T17:13:48.248Z,4.57
2023-01-11T17:16:16.454Z,3.33
2023-01-11T17:18:44.117Z,3.08
2023-01-11T17:21:21.772Z,3.15
2023-01-11T17:23:50.227Z,3.05
2023-01-11T17:26:20.114Z,3.35
2023-01-11T17:28:49.408Z,3.78
2023-01-11T17:31:25.279Z,4.55
2023-01-11T17:34:01.673Z,4.20
2023-01-11T17:36:29.164Z,4.53
2023-01-11T17:38:57.881Z,4.30
2023-01-11T17:41:45.682Z,3.67
2023-01-11T17:44:34.832Z,3.80
2023-01-11T17:47:03.040Z,3.60
2023-01-11T17:49:32.111Z,4.15
2023-01-11T17:52:08.139Z,3.92
2023-01-11T17:54:35.379Z,3.63
2023-01-11T17:57:02.770Z,4.30
2023-01-11T17:59:30.627Z,2.92
2023-01-11T18:01:59.577Z,3.78
2023-01-11T18:04:27.888Z,4.20
2023-01-11T18:06:56.121Z,3.15
2023-01-11T18:09:29.109Z,4.15
2023-01-11T18:12:07.079Z,3.25
2023-01-11T18:14:39.330Z,3.03
2023-01-11T18:17:07.809Z,3.25
2023-01-11T18:19:41.997Z,3.95
2023-01-11T18:22:29.116Z,3.58
2023-01-11T18:24:57.463Z,3.28
2023-01-11T18:27:34.890Z,3.35
2023-01-11T18:30:07.867Z,3.35
2023-01-11T18:32:37.311Z,2.97
2023-01-11T18:35:04.741Z,2.72
2023-01-11T18:37:32.023Z,3.38
2023-01-11T18:39:59.346Z,4.32
2023-01-11T18:42:29.089Z,3.03
2023-01-11T18:44:56.427Z,3.13
2023-01-11T18:47:25.439Z,2.78
2023-01-11T18:49:53.855Z,2.97
2023-01-11T18:52:22.021Z,2.50
2023-01-11T18:54:49.231Z,3.05
2023-01-11T18:57:16.444Z,2.97
2023-01-11T18:59:43.640Z,2.80
2023-01-11T19:02:17.241Z,3.33
2023-01-11T19:04:45.224Z,3.10
2023-01-11T19:07:12.488Z,2.78
2023-01-11T19:09:40.295Z,3.58
2023-01-11T19:12:07.836Z,3.03
2023-01-11T19:14:35.083Z,3.78
2023-01-11T19:17:04.243Z,3.45
2023-01-11T19:19:31.491Z,3.58
2023-01-11T19:21:58.635Z,3.00
2023-01-11T19:24:26.013Z,3.28
2023-01-11T19:26:53.241Z,4.35
2023-01-11T19:29:22.669Z,3.72
2023-01-11T19:31:49.976Z,3.22
2023-01-11T19:34:17.187Z,3.00
2023-01-11T19:36:44.371Z,3.70
2023-01-11T19:39:11.628Z,3.25
2023-01-11T19:41:54.216Z,3.88
2023-01-11T19:44:26.542Z,3.58
2023-01-11T19:47:09.560Z,3.75
2023-01-11T19:49:37.970Z,2.97
2023-01-11T19:52:12.375Z,3.75
2023-01-11T19:54:41.940Z,3.05
2023-01-11T19:57:13.954Z,3.83
2023-01-11T19:59:41.249Z,2.88
2023-01-11T20:02:08.509Z,3.72
2023-01-11T20:04:35.696Z,3.08
2023-01-11T20:07:02.827Z,2.90
2023-01-11T20:09:29.959Z,2.88
2023-01-11T20:11:58.694Z,3.40
2023-01-11T20:14:26.192Z,3.47
2023-01-11T20:16:53.354Z,3.15
2023-01-11T20:19:20.675Z,4.13
2023-01-11T20:21:47.833Z,2.95
2023-01-11T20:24:15.367Z,4.15
2023-01-11T20:26:42.825Z,3.65
2023-01-11T20:29:10.211Z,3.33
2023-01-11T20:31:37.717Z,4.72
2023-01-11T20:34:08.840Z,4.72
2023-01-11T20:36:36.209Z,3.65
2023-01-11T20:39:03.985Z,3.28
2023-01-11T20:41:49.982Z,3.22
2023-01-11T20:44:18.934Z,4.32
2023-01-11T20:46:47.957Z,3.38
2023-01-11T20:49:15.513Z,3.15
2023-01-11T20:51:42.823Z,3.63
2023-01-11T20:54:10.076Z,4.68
2023-01-11T20:56:38.544Z,2.70
2023-01-11T20:59:07.182Z,3.67
2023-01-11T21:01:34.932Z,4.85
2023-01-11T21:04:03.453Z,3.10
2023-01-11T21:06:31.531Z,3.55
2023-01-11T21:09:00.051Z,3.28
2023-01-11T21:11:27.424Z,2.90
2023-01-11T21:13:55.635Z,2.90
2023-01-11T21:16:24.374Z,3.17
2023-01-11T21:18:59.023Z,2.55
2023-01-11T21:21:26.547Z,2.60
2023-01-11T21:23:58.205Z,3.00
2023-01-11T21:26:25.779Z,3.42
2023-01-11T21:28:55.445Z,3.15
2023-01-11T21:31:22.924Z,2.55
2023-01-11T21:33:50.472Z,2.25
2023-01-11T21:36:19.336Z,3.00
2023-01-11T21:38:46.512Z,2.80
2023-01-11T21:41:15.363Z,2.70
2023-01-11T21:43:42.970Z,2.35
2023-01-11T21:46:10.495Z,2.30
2023-01-11T21:48:38.203Z,3.08
2023-01-11T21:51:09.287Z,2.45
2023-01-11T21:53:36.830Z,2.30
2023-01-11T21:56:07.967Z,2.40
2023-01-11T21:58:35.945Z,2.90
2023-01-11T22:01:13.005Z,2.55
2023-01-11T22:03:43.647Z,2.90
2023-01-11T22:06:10.852Z,2.80
2023-01-11T22:08:39.660Z,3.33
2023-01-11T22:11:07.258Z,2.63
2023-01-11T22:13:35.703Z,3.08
2023-01-11T22:16:03.866Z,3.72
2023-01-11T22:18:31.175Z,3.95
2023-01-11T22:21:04.495Z,2.95
2023-01-11T22:23:31.548Z,2.83
2023-01-11T22:26:03.118Z,2.63
2023-01-11T22:28:30.325Z,3.00
2023-01-11T22:31:03.990Z,2.60
2023-01-11T22:33:31.255Z,3.83
2023-01-11T22:35:58.339Z,2.88
2023-01-11T22:38:25.736Z,2.63
2023-01-11T22:40:52.842Z,2.95
2023-01-11T22:43:20.019Z,2.58
2023-01-11T22:45:56.444Z,3.42
2023-01-11T22:48:23.923Z,2.60
2023-01-11T22:50:51.267Z,3.58
2023-01-11T22:53:18.384Z,3.03
2023-01-11T22:55:45.639Z,3.25
2023-01-11T22:58:12.708Z,3.10
2023-01-11T23:00:39.879Z,2.35
2023-01-11T23:03:07.099Z,3.08
2023-01-11T23:05:34.395Z,3.40
2023-01-11T23:08:01.460Z,3.05
2023-01-11T23:10:28.536Z,3.45
2023-01-11T23:13:14.167Z,3.35
2023-01-11T23:15:41.269Z,3.88
2023-01-11T23:18:10.022Z,4.07
2023-01-11T23:20:37.153Z,4.18
2023-01-11T23:23:04.231Z,4.50
2023-01-11T23:25:31.320Z,3.33
2023-01-11T23:27:58.445Z,3.72
2023-01-11T23:30:25.622Z,3.58
2023-01-11T23:32:52.731Z,3.72
2023-01-11T23:35:19.877Z,4.45
2023-01-11T23:37:47.012Z,3.75
2023-01-11T23:40:14.319Z,4.18
2023-01-11T23:42:44.059Z,3.75
2023-01-11T23:45:11.412Z,3.72
2023-01-11T23:47:38.553Z,4.00
2023-01-11T23:50:05.912Z,3.47
2023-01-11T23:52:33.147Z,3.22
2023-01-11T23:55:00.588Z,3.60
2023-01-11T23:57:27.830Z,4.22
2023-01-11T23:59:55.021Z,3.80
